sensor_id;sensor_type;location;lat;lon;timestamp;temperature;humidity
15922;DHT22;8060;50.948;3.146;2023-10-19T00:00:56;16.80;99.90
15922;DHT22;8060;50.948;3.146;2023-10-19T00:03:24;16.70;99.90
15922;DHT22;8060;50.948;3.146;2023-10-19T00:05:55;16.70;99.90
15922;DHT22;8060;50.948;3.146;2023-10-19T00:08:24;16.70;99.90
15922;DHT22;8060;50.948;3.146;2023-10-19T00:10:52;16.70;99.90
15922;DHT22;8060;50.948;3.146;2023-10-19T00:13:28;16.70;99.90
15922;DHT22;8060;50.948;3.146;2023-10-19T00:15:56;16.70;99.90
15922;DHT22;8060;50.948;3.146;2023-10-19T00:18:25;16.70;99.90
15922;DHT22;8060;50.948;3.146;2023-10-19T00:20:54;16.70;99.90
15922;DHT22;8060;50.948;3.146;2023-10-19T00:23:26;16.60;99.90
15922;DHT22;8060;50.948;3.146;2023-10-19T00:25:58;16.70;99.90
15922;DHT22;8060;50.948;3.146;2023-10-19T00:28:27;16.70;99.90
15922;DHT22;8060;50.948;3.146;2023-10-19T00:30:55;16.70;99.90
15922;DHT22;8060;50.948;3.146;2023-10-19T00:33:34;16.60;99.90
15922;DHT22;8060;50.948;3.146;2023-10-19T00:36:08;16.60;99.90
15922;DHT22;8060;50.948;3.146;2023-10-19T00:38:41;16.60;99.90
15922;DHT22;8060;50.948;3.146;2023-10-19T00:41:16;16.60;99.90
15922;DHT22;8060;50.948;3.146;2023-10-19T00:43:48;16.60;99.90
15922;DHT22;8060;50.948;3.146;2023-10-19T00:46:24;16.60;99.90
15922;DHT22;8060;50.948;3.146;2023-10-19T00:49:00;16.60;99.90
15922;DHT22;8060;50.948;3.146;2023-10-19T00:51:36;16.60;99.90
15922;DHT22;8060;50.948;3.146;2023-10-19T00:54:20;16.60;99.90
15922;DHT22;8060;50.948;3.146;2023-10-19T00:56:54;16.60;99.90
15922;DHT22;8060;50.948;3.146;2023-10-19T00:59:30;16.60;99.90
15922;DHT22;8060;50.948;3.146;2023-10-19T01:02:02;16.60;99.90
15922;DHT22;8060;50.948;3.146;2023-10-19T01:04:45;16.50;99.90
15922;DHT22;8060;50.948;3.146;2023-10-19T01:07:19;16.50;99.90
15922;DHT22;8060;50.948;3.146;2023-10-19T01:09:54;16.60;99.90
15922;DHT22;8060;50.948;3.146;2023-10-19T01:12:24;16.60;99.90
15922;DHT22;8060;50.948;3.146;2023-10-19T01:15:05;16.50;99.90
15922;DHT22;8060;50.948;3.146;2023-10-19T01:17:35;16.50;99.90
15922;DHT22;8060;50.948;3.146;2023-10-19T01:20:09;16.50;99.90
15922;DHT22;8060;50.948;3.146;2023-10-19T01:22:52;16.50;99.90
15922;DHT22;8060;50.948;3.146;2023-10-19T01:25:33;16.50;99.90
15922;DHT22;8060;50.948;3.146;2023-10-19T01:28:13;16.50;99.90
15922;DHT22;8060;50.948;3.146;2023-10-19T01:30:44;16.60;99.90
15922;DHT22;8060;50.948;3.146;2023-10-19T01:33:12;16.50;99.90
15922;DHT22;8060;50.948;3.146;2023-10-19T01:35:43;16.40;99.90
15922;DHT22;8060;50.948;3.146;2023-10-19T01:38:30;16.40;99.90
15922;DHT22;8060;50.948;3.146;2023-10-19T01:40:58;16.40;99.90
15922;DHT22;8060;50.948;3.146;2023-10-19T01:43:26;16.40;99.90
15922;DHT22;8060;50.948;3.146;2023-10-19T01:45:57;16.40;99.90
15922;DHT22;8060;50.948;3.146;2023-10-19T01:48:25;16.40;99.90
15922;DHT22;8060;50.948;3.146;2023-10-19T01:51:02;16.40;99.90
15922;DHT22;8060;50.948;3.146;2023-10-19T01:53:32;16.40;99.90
15922;DHT22;8060;50.948;3.146;2023-10-19T01:56:01;16.40;99.90
15922;DHT22;8060;50.948;3.146;2023-10-19T01:58:32;16.40;99.90
15922;DHT22;8060;50.948;3.146;2023-10-19T02:01:04;16.40;99.90
15922;DHT22;8060;50.948;3.146;2023-10-19T02:03:42;16.30;99.90
15922;DHT22;8060;50.948;3.146;2023-10-19T02:06:11;16.30;99.90
15922;DHT22;8060;50.948;3.146;2023-10-19T02:08:49;16.30;99.90
15922;DHT22;8060;50.948;3.146;2023-10-19T02:11:19;16.30;99.90
15922;DHT22;8060;50.948;3.146;2023-10-19T02:13:49;16.30;99.90
15922;DHT22;8060;50.948;3.146;2023-10-19T02:16:19;16.30;99.90
15922;DHT22;8060;50.948;3.146;2023-10-19T02:18:50;16.30;99.90
15922;DHT22;8060;50.948;3.146;2023-10-19T02:21:17;16.30;99.90
15922;DHT22;8060;50.948;3.146;2023-10-19T02:23:50;16.30;99.90
15922;DHT22;8060;50.948;3.146;2023-10-19T02:26:17;16.30;99.90
15922;DHT22;8060;50.948;3.146;2023-10-19T02:28:47;16.30;99.90
15922;DHT22;8060;50.948;3.146;2023-10-19T02:31:14;16.30;99.90
15922;DHT22;8060;50.948;3.146;2023-10-19T02:33:46;16.30;99.90
15922;DHT22;8060;50.948;3.146;2023-10-19T02:36:14;16.20;99.90
15922;DHT22;8060;50.948;3.146;2023-10-19T02:38:43;16.20;99.90
15922;DHT22;8060;50.948;3.146;2023-10-19T02:41:16;16.20;99.90
15922;DHT22;8060;50.948;3.146;2023-10-19T02:43:46;16.20;99.90
15922;DHT22;8060;50.948;3.146;2023-10-19T02:46:18;16.20;99.90
15922;DHT22;8060;50.948;3.146;2023-10-19T02:48:47;16.30;99.90
15922;DHT22;8060;50.948;3.146;2023-10-19T02:51:16;16.20;99.90
15922;DHT22;8060;50.948;3.146;2023-10-19T02:53:46;16.20;99.90
15922;DHT22;8060;50.948;3.146;2023-10-19T02:56:15;16.20;99.90
15922;DHT22;8060;50.948;3.146;2023-10-19T02:58:46;16.20;99.90
15922;DHT22;8060;50.948;3.146;2023-10-19T03:01:17;16.20;99.90
15922;DHT22;8060;50.948;3.146;2023-10-19T03:03:50;16.10;99.90
15922;DHT22;8060;50.948;3.146;2023-10-19T03:06:19;16.20;99.90
15922;DHT22;8060;50.948;3.146;2023-10-19T03:08:47;16.20;99.90
15922;DHT22;8060;50.948;3.146;2023-10-19T03:11:20;16.30;99.90
15922;DHT22;8060;50.948;3.146;2023-10-19T03:13:47;16.20;99.90
15922;DHT22;8060;50.948;3.146;2023-10-19T03:16:17;16.20;99.90
15922;DHT22;8060;50.948;3.146;2023-10-19T03:18:46;16.20;99.90
15922;DHT22;8060;50.948;3.146;2023-10-19T03:21:15;16.20;99.90
15922;DHT22;8060;50.948;3.146;2023-10-19T03:23:43;16.20;99.90
15922;DHT22;8060;50.948;3.146;2023-10-19T03:26:11;16.10;99.90
15922;DHT22;8060;50.948;3.146;2023-10-19T03:28:59;16.20;99.90
15922;DHT22;8060;50.948;3.146;2023-10-19T03:31:34;16.20;99.90
15922;DHT22;8060;50.948;3.146;2023-10-19T03:34:10;16.20;99.90
15922;DHT22;8060;50.948;3.146;2023-10-19T03:36:40;16.20;99.90
15922;DHT22;8060;50.948;3.146;2023-10-19T03:39:09;16.20;99.90
15922;DHT22;8060;50.948;3.146;2023-10-19T03:41:41;16.20;99.90
15922;DHT22;8060;50.948;3.146;2023-10-19T03:44:12;16.20;99.90
15922;DHT22;8060;50.948;3.146;2023-10-19T03:46:46;16.30;99.90
15922;DHT22;8060;50.948;3.146;2023-10-19T03:49:25;16.30;99.90
15922;DHT22;8060;50.948;3.146;2023-10-19T03:52:00;16.30;99.90
15922;DHT22;8060;50.948;3.146;2023-10-19T03:54:48;16.30;99.90
15922;DHT22;8060;50.948;3.146;2023-10-19T03:57:18;16.20;99.90
15922;DHT22;8060;50.948;3.146;2023-10-19T03:59:53;16.20;99.90
15922;DHT22;8060;50.948;3.146;2023-10-19T04:02:24;16.30;99.90
15922;DHT22;8060;50.948;3.146;2023-10-19T04:04:54;16.30;99.90
15922;DHT22;8060;50.948;3.146;2023-10-19T04:07:23;16.30;99.90
15922;DHT22;8060;50.948;3.146;2023-10-19T04:09:53;16.30;99.90
15922;DHT22;8060;50.948;3.146;2023-10-19T04:12:27;16.30;99.90
15922;DHT22;8060;50.948;3.146;2023-10-19T04:14:59;16.30;99.90
15922;DHT22;8060;50.948;3.146;2023-10-19T04:17:36;16.20;99.90
15922;DHT22;8060;50.948;3.146;2023-10-19T04:20:06;16.40;99.90
15922;DHT22;8060;50.948;3.146;2023-10-19T04:22:53;16.30;99.90
15922;DHT22;8060;50.948;3.146;2023-10-19T04:25:21;16.40;99.90
15922;DHT22;8060;50.948;3.146;2023-10-19T04:27:53;16.40;99.90
15922;DHT22;8060;50.948;3.146;2023-10-19T04:30:25;16.40;99.90
15922;DHT22;8060;50.948;3.146;2023-10-19T04:32:54;16.40;99.90
15922;DHT22;8060;50.948;3.146;2023-10-19T04:35:25;16.40;99.90
15922;DHT22;8060;50.948;3.146;2023-10-19T04:37:57;16.40;99.90
15922;DHT22;8060;50.948;3.146;2023-10-19T04:40:26;16.40;99.90
15922;DHT22;8060;50.948;3.146;2023-10-19T04:42:55;16.40;99.90
15922;DHT22;8060;50.948;3.146;2023-10-19T04:45:24;16.40;99.90
15922;DHT22;8060;50.948;3.146;2023-10-19T04:47:53;16.30;99.90
15922;DHT22;8060;50.948;3.146;2023-10-19T04:50:22;16.20;99.90
15922;DHT22;8060;50.948;3.146;2023-10-19T04:52:50;16.30;99.90
15922;DHT22;8060;50.948;3.146;2023-10-19T04:55:18;16.30;99.90
15922;DHT22;8060;50.948;3.146;2023-10-19T04:57:47;16.30;99.90
15922;DHT22;8060;50.948;3.146;2023-10-19T05:00:17;16.30;99.90
15922;DHT22;8060;50.948;3.146;2023-10-19T05:02:49;16.30;99.90
15922;DHT22;8060;50.948;3.146;2023-10-19T05:05:19;16.30;99.90
15922;DHT22;8060;50.948;3.146;2023-10-19T05:07:47;16.30;99.90
15922;DHT22;8060;50.948;3.146;2023-10-19T05:10:15;16.30;99.90
15922;DHT22;8060;50.948;3.146;2023-10-19T05:12:44;16.30;99.90
15922;DHT22;8060;50.948;3.146;2023-10-19T05:15:12;16.30;99.90
15922;DHT22;8060;50.948;3.146;2023-10-19T05:17:40;16.30;99.90
15922;DHT22;8060;50.948;3.146;2023-10-19T05:20:11;16.30;99.90
15922;DHT22;8060;50.948;3.146;2023-10-19T05:22:39;16.30;99.90
15922;DHT22;8060;50.948;3.146;2023-10-19T05:25:08;16.40;99.90
15922;DHT22;8060;50.948;3.146;2023-10-19T05:27:37;16.40;99.90
15922;DHT22;8060;50.948;3.146;2023-10-19T05:30:07;16.30;99.90
15922;DHT22;8060;50.948;3.146;2023-10-19T05:32:37;16.20;99.90
15922;DHT22;8060;50.948;3.146;2023-10-19T05:35:06;16.10;99.90
15922;DHT22;8060;50.948;3.146;2023-10-19T05:37:35;16.10;99.90
15922;DHT22;8060;50.948;3.146;2023-10-19T05:40:04;16.10;99.90
15922;DHT22;8060;50.948;3.146;2023-10-19T05:42:39;16.10;99.90
15922;DHT22;8060;50.948;3.146;2023-10-19T05:45:08;16.10;99.90
15922;DHT22;8060;50.948;3.146;2023-10-19T05:47:39;16.20;99.90
15922;DHT22;8060;50.948;3.146;2023-10-19T05:50:09;16.10;99.90
15922;DHT22;8060;50.948;3.146;2023-10-19T05:52:43;16.00;99.90
15922;DHT22;8060;50.948;3.146;2023-10-19T05:55:11;15.90;99.90
15922;DHT22;8060;50.948;3.146;2023-10-19T05:57:40;15.90;99.90
15922;DHT22;8060;50.948;3.146;2023-10-19T06:00:09;15.90;99.90
15922;DHT22;8060;50.948;3.146;2023-10-19T06:02:43;15.80;99.90
15922;DHT22;8060;50.948;3.146;2023-10-19T06:05:13;15.90;99.90
15922;DHT22;8060;50.948;3.146;2023-10-19T06:07:44;15.90;99.90
15922;DHT22;8060;50.948;3.146;2023-10-19T06:10:15;15.90;99.90
15922;DHT22;8060;50.948;3.146;2023-10-19T06:12:49;15.90;99.90
15922;DHT22;8060;50.948;3.146;2023-10-19T06:15:19;15.80;99.90
15922;DHT22;8060;50.948;3.146;2023-10-19T06:17:48;15.80;99.90
15922;DHT22;8060;50.948;3.146;2023-10-19T06:20:17;15.90;99.90
15922;DHT22;8060;50.948;3.146;2023-10-19T06:22:53;15.90;99.90
15922;DHT22;8060;50.948;3.146;2023-10-19T06:25:24;15.90;99.90
15922;DHT22;8060;50.948;3.146;2023-10-19T06:27:53;16.00;99.90
15922;DHT22;8060;50.948;3.146;2023-10-19T06:30:24;16.00;99.90
15922;DHT22;8060;50.948;3.146;2023-10-19T06:32:54;16.00;99.90
15922;DHT22;8060;50.948;3.146;2023-10-19T06:35:23;16.00;99.90
15922;DHT22;8060;50.948;3.146;2023-10-19T06:37:53;16.00;99.90
15922;DHT22;8060;50.948;3.146;2023-10-19T06:40:22;15.90;99.90
15922;DHT22;8060;50.948;3.146;2023-10-19T06:42:50;15.90;99.90
15922;DHT22;8060;50.948;3.146;2023-10-19T06:45:19;15.90;99.90
15922;DHT22;8060;50.948;3.146;2023-10-19T06:47:49;15.90;99.90
15922;DHT22;8060;50.948;3.146;2023-10-19T06:50:19;15.90;99.90
15922;DHT22;8060;50.948;3.146;2023-10-19T06:52:47;15.90;99.90
15922;DHT22;8060;50.948;3.146;2023-10-19T06:55:18;15.90;99.90
15922;DHT22;8060;50.948;3.146;2023-10-19T06:57:49;15.90;99.90
15922;DHT22;8060;50.948;3.146;2023-10-19T07:00:19;15.80;99.90
15922;DHT22;8060;50.948;3.146;2023-10-19T07:02:48;15.90;99.90
15922;DHT22;8060;50.948;3.146;2023-10-19T07:05:18;15.90;99.90
15922;DHT22;8060;50.948;3.146;2023-10-19T07:07:49;15.80;99.90
15922;DHT22;8060;50.948;3.146;2023-10-19T07:10:20;15.80;99.90
15922;DHT22;8060;50.948;3.146;2023-10-19T07:12:52;15.90;99.90
15922;DHT22;8060;50.948;3.146;2023-10-19T07:15:21;15.90;99.90
15922;DHT22;8060;50.948;3.146;2023-10-19T07:17:52;16.00;99.90
15922;DHT22;8060;50.948;3.146;2023-10-19T07:20:22;16.00;99.90
15922;DHT22;8060;50.948;3.146;2023-10-19T07:22:53;16.00;99.90
15922;DHT22;8060;50.948;3.146;2023-10-19T07:25:23;16.00;99.90
15922;DHT22;8060;50.948;3.146;2023-10-19T07:27:53;16.00;99.90
15922;DHT22;8060;50.948;3.146;2023-10-19T07:30:22;16.00;99.90
15922;DHT22;8060;50.948;3.146;2023-10-19T07:32:53;16.00;99.90
15922;DHT22;8060;50.948;3.146;2023-10-19T07:35:26;16.10;99.90
15922;DHT22;8060;50.948;3.146;2023-10-19T07:37:55;16.00;99.90
15922;DHT22;8060;50.948;3.146;2023-10-19T07:40:25;16.10;99.90
15922;DHT22;8060;50.948;3.146;2023-10-19T07:42:54;16.10;99.90
15922;DHT22;8060;50.948;3.146;2023-10-19T07:45:23;16.10;99.90
15922;DHT22;8060;50.948;3.146;2023-10-19T07:47:52;16.20;99.90
15922;DHT22;8060;50.948;3.146;2023-10-19T07:50:21;16.30;99.90
15922;DHT22;8060;50.948;3.146;2023-10-19T07:52:51;16.30;99.90
15922;DHT22;8060;50.948;3.146;2023-10-19T07:55:21;16.40;99.90
15922;DHT22;8060;50.948;3.146;2023-10-19T07:57:52;16.40;99.90
15922;DHT22;8060;50.948;3.146;2023-10-19T08:00:21;16.40;99.90
15922;DHT22;8060;50.948;3.146;2023-10-19T08:02:50;16.50;99.90
15922;DHT22;8060;50.948;3.146;2023-10-19T08:05:20;16.60;99.90
15922;DHT22;8060;50.948;3.146;2023-10-19T08:07:48;16.60;99.90
15922;DHT22;8060;50.948;3.146;2023-10-19T08:10:18;16.60;99.90
15922;DHT22;8060;50.948;3.146;2023-10-19T08:12:47;16.80;99.90
15922;DHT22;8060;50.948;3.146;2023-10-19T08:15:17;17.00;99.90
15922;DHT22;8060;50.948;3.146;2023-10-19T08:17:48;17.10;99.90
15922;DHT22;8060;50.948;3.146;2023-10-19T08:20:17;17.10;99.90
15922;DHT22;8060;50.948;3.146;2023-10-19T08:22:51;17.20;99.90
15922;DHT22;8060;50.948;3.146;2023-10-19T08:25:20;17.20;99.90
15922;DHT22;8060;50.948;3.146;2023-10-19T08:27:48;17.20;99.90
15922;DHT22;8060;50.948;3.146;2023-10-19T08:30:19;17.10;99.90
15922;DHT22;8060;50.948;3.146;2023-10-19T08:32:52;17.00;99.90
15922;DHT22;8060;50.948;3.146;2023-10-19T08:35:21;17.10;99.90
15922;DHT22;8060;50.948;3.146;2023-10-19T08:37:52;17.10;99.90
15922;DHT22;8060;50.948;3.146;2023-10-19T08:40:21;17.00;99.90
15922;DHT22;8060;50.948;3.146;2023-10-19T08:42:50;17.10;99.90
15922;DHT22;8060;50.948;3.146;2023-10-19T08:45:20;17.00;99.90
15922;DHT22;8060;50.948;3.146;2023-10-19T08:47:53;17.10;99.90
15922;DHT22;8060;50.948;3.146;2023-10-19T08:50:24;17.20;99.90
15922;DHT22;8060;50.948;3.146;2023-10-19T08:52:54;17.20;99.90
15922;DHT22;8060;50.948;3.146;2023-10-19T08:55:22;17.30;99.90
15922;DHT22;8060;50.948;3.146;2023-10-19T08:58:07;17.40;99.90
15922;DHT22;8060;50.948;3.146;2023-10-19T09:00:48;17.40;99.90
15922;DHT22;8060;50.948;3.146;2023-10-19T09:03:19;17.40;99.90
15922;DHT22;8060;50.948;3.146;2023-10-19T09:05:49;17.30;99.90
15922;DHT22;8060;50.948;3.146;2023-10-19T09:08:18;17.40;99.90
15922;DHT22;8060;50.948;3.146;2023-10-19T09:10:50;17.40;99.90
15922;DHT22;8060;50.948;3.146;2023-10-19T09:13:20;17.40;99.90
15922;DHT22;8060;50.948;3.146;2023-10-19T09:15:52;17.50;99.90
15922;DHT22;8060;50.948;3.146;2023-10-19T09:18:23;17.60;99.90
15922;DHT22;8060;50.948;3.146;2023-10-19T09:20:55;17.70;99.90
15922;DHT22;8060;50.948;3.146;2023-10-19T09:23:30;17.80;99.90
15922;DHT22;8060;50.948;3.146;2023-10-19T09:26:00;17.70;99.90
15922;DHT22;8060;50.948;3.146;2023-10-19T09:28:31;17.70;99.90
15922;DHT22;8060;50.948;3.146;2023-10-19T09:31:02;17.80;99.90
15922;DHT22;8060;50.948;3.146;2023-10-19T09:33:32;17.80;99.90
15922;DHT22;8060;50.948;3.146;2023-10-19T09:36:03;17.70;99.90
15922;DHT22;8060;50.948;3.146;2023-10-19T09:38:44;17.80;99.90
15922;DHT22;8060;50.948;3.146;2023-10-19T09:41:17;17.70;99.90
15922;DHT22;8060;50.948;3.146;2023-10-19T09:43:46;17.70;99.90
15922;DHT22;8060;50.948;3.146;2023-10-19T09:46:21;17.70;99.90
15922;DHT22;8060;50.948;3.146;2023-10-19T09:48:50;17.70;99.90
15922;DHT22;8060;50.948;3.146;2023-10-19T09:51:20;17.60;99.90
15922;DHT22;8060;50.948;3.146;2023-10-19T09:53:53;17.60;99.90
15922;DHT22;8060;50.948;3.146;2023-10-19T09:56:26;17.60;99.90
15922;DHT22;8060;50.948;3.146;2023-10-19T09:59:02;17.60;99.90
15922;DHT22;8060;50.948;3.146;2023-10-19T10:04:35;17.60;99.90
15922;DHT22;8060;50.948;3.146;2023-10-19T10:07:05;17.60;99.90
15922;DHT22;8060;50.948;3.146;2023-10-19T10:09:36;17.60;99.90
15922;DHT22;8060;50.948;3.146;2023-10-19T10:12:18;17.70;99.90
15922;DHT22;8060;50.948;3.146;2023-10-19T10:14:57;17.60;99.90
15922;DHT22;8060;50.948;3.146;2023-10-19T10:17:26;17.80;99.90
15922;DHT22;8060;50.948;3.146;2023-10-19T10:22:40;18.00;99.90
15922;DHT22;8060;50.948;3.146;2023-10-19T10:25:25;18.10;99.90
15922;DHT22;8060;50.948;3.146;2023-10-19T10:27:55;18.20;99.90
15922;DHT22;8060;50.948;3.146;2023-10-19T10:30:23;18.30;99.90
15922;DHT22;8060;50.948;3.146;2023-10-19T10:32:52;18.30;99.90
15922;DHT22;8060;50.948;3.146;2023-10-19T10:35:54;18.40;99.90
15922;DHT22;8060;50.948;3.146;2023-10-19T10:38:22;18.50;99.90
15922;DHT22;8060;50.948;3.146;2023-10-19T10:40:51;18.70;99.90
15922;DHT22;8060;50.948;3.146;2023-10-19T10:43:19;18.90;99.90
15922;DHT22;8060;50.948;3.146;2023-10-19T10:45:48;19.10;99.90
15922;DHT22;8060;50.948;3.146;2023-10-19T10:48:17;19.60;99.90
15922;DHT22;8060;50.948;3.146;2023-10-19T10:50:46;20.10;99.90
15922;DHT22;8060;50.948;3.146;2023-10-19T10:53:16;20.40;99.90
15922;DHT22;8060;50.948;3.146;2023-10-19T10:55:44;20.80;99.90
15922;DHT22;8060;50.948;3.146;2023-10-19T10:58:15;21.20;99.90
15922;DHT22;8060;50.948;3.146;2023-10-19T11:00:43;21.30;99.90
15922;DHT22;8060;50.948;3.146;2023-10-19T11:03:12;21.10;99.90
15922;DHT22;8060;50.948;3.146;2023-10-19T11:05:40;20.80;99.90
15922;DHT22;8060;50.948;3.146;2023-10-19T11:08:13;20.50;99.90
15922;DHT22;8060;50.948;3.146;2023-10-19T11:10:45;20.20;99.90
15922;DHT22;8060;50.948;3.146;2023-10-19T11:13:15;19.90;99.90
15922;DHT22;8060;50.948;3.146;2023-10-19T11:15:48;19.80;99.90
15922;DHT22;8060;50.948;3.146;2023-10-19T11:18:28;19.60;99.90
15922;DHT22;8060;50.948;3.146;2023-10-19T11:20:57;19.60;99.90
15922;DHT22;8060;50.948;3.146;2023-10-19T11:23:40;19.50;99.90
15922;DHT22;8060;50.948;3.146;2023-10-19T11:26:11;19.50;99.90
15922;DHT22;8060;50.948;3.146;2023-10-19T11:28:41;19.50;99.90
15922;DHT22;8060;50.948;3.146;2023-10-19T11:31:16;19.60;99.90
15922;DHT22;8060;50.948;3.146;2023-10-19T11:33:46;19.70;99.90
15922;DHT22;8060;50.948;3.146;2023-10-19T11:36:17;19.70;99.90
15922;DHT22;8060;50.948;3.146;2023-10-19T11:38:46;19.70;99.90
15922;DHT22;8060;50.948;3.146;2023-10-19T11:41:16;19.70;99.90
15922;DHT22;8060;50.948;3.146;2023-10-19T11:43:45;19.60;99.90
15922;DHT22;8060;50.948;3.146;2023-10-19T11:46:15;19.60;99.90
15922;DHT22;8060;50.948;3.146;2023-10-19T11:48:45;19.60;99.90
15922;DHT22;8060;50.948;3.146;2023-10-19T11:51:13;19.50;99.90
15922;DHT22;8060;50.948;3.146;2023-10-19T11:53:42;19.50;99.90
15922;DHT22;8060;50.948;3.146;2023-10-19T11:56:12;19.40;99.90
15922;DHT22;8060;50.948;3.146;2023-10-19T11:58:42;19.30;99.90
15922;DHT22;8060;50.948;3.146;2023-10-19T12:01:14;19.30;99.90
15922;DHT22;8060;50.948;3.146;2023-10-19T12:03:45;19.30;99.90
15922;DHT22;8060;50.948;3.146;2023-10-19T12:06:13;19.30;99.90
15922;DHT22;8060;50.948;3.146;2023-10-19T12:08:46;19.20;99.90
15922;DHT22;8060;50.948;3.146;2023-10-19T12:11:14;19.10;99.90
15922;DHT22;8060;50.948;3.146;2023-10-19T12:13:45;19.10;99.90
15922;DHT22;8060;50.948;3.146;2023-10-19T12:16:15;19.00;99.90
15922;DHT22;8060;50.948;3.146;2023-10-19T12:18:44;19.10;99.90
15922;DHT22;8060;50.948;3.146;2023-10-19T12:21:13;19.00;99.90
15922;DHT22;8060;50.948;3.146;2023-10-19T12:23:42;19.10;99.90
15922;DHT22;8060;50.948;3.146;2023-10-19T12:26:11;19.00;99.90
15922;DHT22;8060;50.948;3.146;2023-10-19T12:28:39;19.00;99.90
15922;DHT22;8060;50.948;3.146;2023-10-19T12:31:09;19.00;99.90
15922;DHT22;8060;50.948;3.146;2023-10-19T12:33:38;19.00;99.90
15922;DHT22;8060;50.948;3.146;2023-10-19T12:36:08;19.10;99.90
15922;DHT22;8060;50.948;3.146;2023-10-19T12:38:58;19.10;99.90
15922;DHT22;8060;50.948;3.146;2023-10-19T12:41:28;19.20;99.90
15922;DHT22;8060;50.948;3.146;2023-10-19T12:43:56;19.30;99.90
15922;DHT22;8060;50.948;3.146;2023-10-19T12:46:27;19.60;99.90
15922;DHT22;8060;50.948;3.146;2023-10-19T12:48:56;19.70;99.90
15922;DHT22;8060;50.948;3.146;2023-10-19T12:51:25;19.80;99.90
15922;DHT22;8060;50.948;3.146;2023-10-19T12:53:54;19.70;99.90
15922;DHT22;8060;50.948;3.146;2023-10-19T12:56:23;19.80;99.90
15922;DHT22;8060;50.948;3.146;2023-10-19T12:58:51;19.80;99.90
15922;DHT22;8060;50.948;3.146;2023-10-19T13:01:21;19.70;99.90
15922;DHT22;8060;50.948;3.146;2023-10-19T13:03:51;19.70;99.90
15922;DHT22;8060;50.948;3.146;2023-10-19T13:06:19;19.60;99.90
15922;DHT22;8060;50.948;3.146;2023-10-19T13:08:47;19.60;99.90
15922;DHT22;8060;50.948;3.146;2023-10-19T13:11:15;19.70;99.90
15922;DHT22;8060;50.948;3.146;2023-10-19T13:13:45;19.70;99.90
15922;DHT22;8060;50.948;3.146;2023-10-19T13:16:14;19.70;99.90
15922;DHT22;8060;50.948;3.146;2023-10-19T13:18:43;19.60;99.90
15922;DHT22;8060;50.948;3.146;2023-10-19T13:21:14;19.60;99.90
15922;DHT22;8060;50.948;3.146;2023-10-19T13:23:48;19.60;99.90
15922;DHT22;8060;50.948;3.146;2023-10-19T13:26:17;19.50;99.90
15922;DHT22;8060;50.948;3.146;2023-10-19T13:28:46;19.50;99.90
15922;DHT22;8060;50.948;3.146;2023-10-19T13:31:15;19.50;99.90
15922;DHT22;8060;50.948;3.146;2023-10-19T13:33:46;19.50;99.90
15922;DHT22;8060;50.948;3.146;2023-10-19T13:36:16;19.60;99.90
15922;DHT22;8060;50.948;3.146;2023-10-19T13:38:44;19.90;99.90
15922;DHT22;8060;50.948;3.146;2023-10-19T13:41:12;21.10;99.90
15922;DHT22;8060;50.948;3.146;2023-10-19T13:43:43;22.50;99.90
15922;DHT22;8060;50.948;3.146;2023-10-19T13:46:12;24.20;99.90
15922;DHT22;8060;50.948;3.146;2023-10-19T13:48:40;25.30;99.90
15922;DHT22;8060;50.948;3.146;2023-10-19T13:51:08;25.20;99.90
15922;DHT22;8060;50.948;3.146;2023-10-19T13:53:42;24.50;99.90
15922;DHT22;8060;50.948;3.146;2023-10-19T13:56:12;24.00;99.90
15922;DHT22;8060;50.948;3.146;2023-10-19T13:58:42;23.50;99.90
15922;DHT22;8060;50.948;3.146;2023-10-19T14:01:10;23.00;99.90
15922;DHT22;8060;50.948;3.146;2023-10-19T14:03:43;22.50;99.90
15922;DHT22;8060;50.948;3.146;2023-10-19T14:06:12;22.10;99.90
15922;DHT22;8060;50.948;3.146;2023-10-19T14:08:42;21.70;99.90
15922;DHT22;8060;50.948;3.146;2023-10-19T14:11:11;21.60;99.90
15922;DHT22;8060;50.948;3.146;2023-10-19T14:13:39;21.70;99.90
15922;DHT22;8060;50.948;3.146;2023-10-19T14:16:09;22.50;99.90
15922;DHT22;8060;50.948;3.146;2023-10-19T14:18:38;23.50;99.90
15922;DHT22;8060;50.948;3.146;2023-10-19T14:21:14;24.80;99.90
15922;DHT22;8060;50.948;3.146;2023-10-19T14:23:44;25.80;99.90
15922;DHT22;8060;50.948;3.146;2023-10-19T14:26:15;26.40;99.90
15922;DHT22;8060;50.948;3.146;2023-10-19T14:28:44;27.00;99.90
15922;DHT22;8060;50.948;3.146;2023-10-19T14:31:12;27.40;99.90
15922;DHT22;8060;50.948;3.146;2023-10-19T14:33:40;27.80;99.90
15922;DHT22;8060;50.948;3.146;2023-10-19T14:36:09;27.10;99.90
15922;DHT22;8060;50.948;3.146;2023-10-19T14:38:37;26.10;99.90
15922;DHT22;8060;50.948;3.146;2023-10-19T14:41:07;26.30;99.90
15922;DHT22;8060;50.948;3.146;2023-10-19T14:43:36;26.50;99.90
15922;DHT22;8060;50.948;3.146;2023-10-19T14:46:05;26.30;99.90
15922;DHT22;8060;50.948;3.146;2023-10-19T14:48:34;26.20;99.90
15922;DHT22;8060;50.948;3.146;2023-10-19T14:51:03;25.90;99.90
15922;DHT22;8060;50.948;3.146;2023-10-19T14:53:32;25.50;99.90
15922;DHT22;8060;50.948;3.146;2023-10-19T14:56:01;25.00;99.90
15922;DHT22;8060;50.948;3.146;2023-10-19T14:58:30;24.40;99.90
15922;DHT22;8060;50.948;3.146;2023-10-19T15:00:59;24.00;99.90
15922;DHT22;8060;50.948;3.146;2023-10-19T15:03:27;23.50;99.90
15922;DHT22;8060;50.948;3.146;2023-10-19T15:05:56;23.30;99.90
15922;DHT22;8060;50.948;3.146;2023-10-19T15:08:26;23.10;99.90
15922;DHT22;8060;50.948;3.146;2023-10-19T15:10:58;22.80;99.90
15922;DHT22;8060;50.948;3.146;2023-10-19T15:13:27;22.60;99.90
15922;DHT22;8060;50.948;3.146;2023-10-19T15:15:56;22.50;99.90
15922;DHT22;8060;50.948;3.146;2023-10-19T15:18:24;22.30;99.90
15922;DHT22;8060;50.948;3.146;2023-10-19T15:20:52;22.10;99.90
15922;DHT22;8060;50.948;3.146;2023-10-19T15:23:20;22.00;99.90
15922;DHT22;8060;50.948;3.146;2023-10-19T15:25:49;21.90;99.90
15922;DHT22;8060;50.948;3.146;2023-10-19T15:28:18;21.80;99.90
15922;DHT22;8060;50.948;3.146;2023-10-19T15:30:46;21.60;99.90
15922;DHT22;8060;50.948;3.146;2023-10-19T15:33:17;21.60;99.90
15922;DHT22;8060;50.948;3.146;2023-10-19T15:35:47;21.50;99.90
15922;DHT22;8060;50.948;3.146;2023-10-19T15:38:15;21.40;99.90
15922;DHT22;8060;50.948;3.146;2023-10-19T15:40:43;21.40;99.90
15922;DHT22;8060;50.948;3.146;2023-10-19T15:43:12;21.40;99.90
15922;DHT22;8060;50.948;3.146;2023-10-19T15:45:40;21.40;99.90
15922;DHT22;8060;50.948;3.146;2023-10-19T15:48:11;21.30;99.90
15922;DHT22;8060;50.948;3.146;2023-10-19T15:50:41;21.20;99.90
15922;DHT22;8060;50.948;3.146;2023-10-19T15:53:09;21.10;99.90
15922;DHT22;8060;50.948;3.146;2023-10-19T15:55:37;21.00;99.90
15922;DHT22;8060;50.948;3.146;2023-10-19T15:58:05;20.90;99.90
15922;DHT22;8060;50.948;3.146;2023-10-19T16:00:35;20.90;99.90
15922;DHT22;8060;50.948;3.146;2023-10-19T16:03:04;20.80;99.90
15922;DHT22;8060;50.948;3.146;2023-10-19T16:05:33;20.70;99.90
15922;DHT22;8060;50.948;3.146;2023-10-19T16:08:05;20.60;99.90
15922;DHT22;8060;50.948;3.146;2023-10-19T16:10:33;20.50;99.90
15922;DHT22;8060;50.948;3.146;2023-10-19T16:13:03;20.50;99.90